Time;durP1;ratioP1;P1;durP2;ratioP2;P2;SDS_P1;SDS_P2;PMS_P1;PMS_P2;Temp;Humidity;BMP_temperature;BMP_pressure;BME280_temperature;BME280_humidity;BME280_pressure;Samples;Min_cycle;Max_cycle;Signal;HPM_P1;HPM_P2
2022/03/07 00:01:11;;;;;;;7.07;6.37;;;;;;;1.02;67.02;101961.28;5093422;28;20240;-82
2022/03/07 00:03:39;;;;;;;7.00;5.97;;;;;;;1.03;66.77;101956.94;5085784;28;20224;-82
2022/03/07 00:06:05;;;;;;;7.20;6.50;;;;;;;1.00;66.90;101955.19;5091415;28;20235;-81
2022/03/07 00:08:32;;;;;;;7.90;7.10;;;;;;;1.00;66.89;101962.19;5089894;28;20197;-82
2022/03/07 00:10:59;;;;;;;7.70;6.93;;;;;;;1.00;66.78;101959.56;5079989;28;20201;-81
2022/03/07 00:13:26;;;;;;;9.17;7.20;;;;;;;0.99;66.77;101960.44;5084222;28;20204;-83
2022/03/07 00:15:53;;;;;;;7.87;6.97;;;;;;;0.99;66.59;101948.19;5090929;28;20220;-82
2022/03/07 00:18:20;;;;;;;8.10;7.30;;;;;;;1.00;66.76;101946.44;5093692;28;20726;-82
2022/03/07 00:20:48;;;;;;;11.33;7.80;;;;;;;1.00;66.66;101951.69;5092690;28;20201;-83
2022/03/07 00:23:15;;;;;;;10.83;7.97;;;;;;;1.01;66.88;101958.69;5088210;28;20220;-82
2022/03/07 00:25:41;;;;;;;8.50;7.60;;;;;;;1.00;66.80;101955.19;5094825;28;20670;-82
2022/03/07 00:28:08;;;;;;;10.27;7.87;;;;;;;1.01;67.01;101953.44;5094512;28;20218;-82
2022/03/07 00:30:35;;;;;;;8.10;7.30;;;;;;;1.02;66.87;101957.81;5094918;28;20230;-82
2022/03/07 00:33:01;;;;;;;7.43;6.73;;;;;;;1.02;66.73;101957.81;5088574;28;20201;-81
2022/03/07 00:35:28;;;;;;;8.97;7.93;;;;;;;1.01;66.97;101959.56;5094659;28;20208;-82
2022/03/07 00:37:56;;;;;;;8.67;7.63;;;;;;;1.04;66.52;101956.91;5094599;28;20208;-81
2022/03/07 00:40:22;;;;;;;7.80;6.93;;;;;;;1.04;66.72;101970.03;5086201;28;20209;-82
2022/03/07 00:42:49;;;;;;;10.17;8.00;;;;;;;1.07;66.77;101969.16;5090764;28;20227;-82
2022/03/07 00:45:15;;;;;;;9.13;8.10;;;;;;;1.08;66.92;101964.75;5092177;28;20674;-82
2022/03/07 00:47:42;;;;;;;8.07;7.00;;;;;;;1.07;66.71;101963.91;5095568;28;20220;-82
2022/03/07 00:50:09;;;;;;;11.83;8.40;;;;;;;1.09;67.24;101971.75;5094516;28;20211;-82
2022/03/07 00:52:36;;;;;;;8.33;7.07;;;;;;;1.10;66.85;101971.75;5095249;28;20670;-82
2022/03/07 00:55:05;;;;;;;7.87;7.07;;;;;;;1.10;66.94;101974.38;5091552;28;20219;-83
2022/03/07 00:57:31;;;;;;;7.97;7.23;;;;;;;1.11;66.98;101967.38;5084858;28;20243;-83
2022/03/07 00:59:58;;;;;;;10.17;8.07;;;;;;;1.11;66.81;101970.88;5093795;28;20208;-82
2022/03/07 01:02:25;;;;;;;8.60;7.70;;;;;;;1.10;67.02;101976.13;5091399;28;20917;-83
2022/03/07 01:04:51;;;;;;;10.27;7.80;;;;;;;1.11;66.76;101967.38;5079415;28;20205;-81
2022/03/07 01:07:18;;;;;;;10.50;8.70;;;;;;;1.08;66.79;101962.13;5087915;28;20224;-82
2022/03/07 01:09:44;;;;;;;14.20;11.23;;;;;;;1.09;66.79;101966.50;5089998;28;20217;-83
2022/03/07 01:12:12;;;;;;;20.80;14.00;;;;;;;1.08;66.91;101972.63;5089874;28;20208;-82
2022/03/07 01:14:39;;;;;;;13.27;11.20;;;;;;;1.07;66.72;101970.91;5097102;28;20670;-82
2022/03/07 01:17:05;;;;;;;8.90;7.93;;;;;;;1.08;66.77;101964.75;5098117;28;20319;-83
2022/03/07 01:19:32;;;;;;;8.63;7.20;;;;;;;1.09;66.92;101963.88;5098441;28;20212;-81
2022/03/07 01:21:59;;;;;;;10.23;8.67;;;;;;;1.08;66.94;101973.50;5090568;28;20211;-82
2022/03/07 01:24:25;;;;;;;12.00;9.90;;;;;;;1.08;66.68;101965.63;5087768;28;20240;-83
2022/03/07 01:26:52;;;;;;;10.00;8.37;;;;;;;1.08;66.87;101970.88;5087625;28;20227;-82
2022/03/07 01:29:20;;;;;;;9.70;8.67;;;;;;;1.08;67.02;101976.13;5093454;28;20239;-82
2022/03/07 01:31:46;;;;;;;10.57;8.23;;;;;;;1.07;66.98;101969.16;5089432;28;20212;-83
2022/03/07 01:34:14;;;;;;;9.57;7.63;;;;;;;1.07;66.93;101963.91;5095356;28;20645;-82
2022/03/07 01:36:40;;;;;;;10.90;8.00;;;;;;;1.07;66.65;101957.78;5097059;28;20280;-83
2022/03/07 01:39:07;;;;;;;9.50;7.83;;;;;;;1.07;66.86;101961.28;5085479;28;20201;-82
2022/03/07 01:41:34;;;;;;;9.40;7.50;;;;;;;1.07;66.89;101960.41;5091892;28;20208;-82
2022/03/07 01:44:01;;;;;;;8.43;7.20;;;;;;;1.07;67.05;101953.41;5084683;28;20285;-83
2022/03/07 01:46:31;;;;;;;8.33;6.87;;;;;;;1.07;67.00;101948.16;5091107;28;20247;-82
2022/03/07 01:48:58;;;;;;;8.20;7.30;;;;;;;1.09;66.55;101956.00;5094360;28;20208;-82
2022/03/07 01:51:26;;;;;;;8.50;7.70;;;;;;;1.08;67.00;101949.88;5082679;28;20227;-83
2022/03/07 01:53:52;;;;;;;10.17;7.33;;;;;;;1.08;66.98;101949.88;5082429;28;20216;-82
2022/03/07 01:56:19;;;;;;;9.03;7.80;;;;;;;1.09;67.02;101950.75;5094281;28;20958;-83
2022/03/07 01:58:45;;;;;;;8.17;6.77;;;;;;;1.09;66.86;101945.50;5096073;28;20250;-83
2022/03/07 02:01:13;;;;;;;9.10;7.07;;;;;;;1.07;66.70;101947.31;5088609;28;20208;-83
2022/03/07 02:03:40;;;;;;;8.17;7.33;;;;;;;1.06;66.60;101945.56;5094419;28;20589;-83
2022/03/07 02:06:07;;;;;;;10.67;7.50;;;;;;;1.06;66.70;101951.66;5085150;28;20234;-81
2022/03/07 02:08:34;;;;;;;9.63;7.23;;;;;;;1.04;66.85;101949.06;5095672;28;20208;-82
2022/03/07 02:11:01;;;;;;;9.93;7.47;;;;;;;1.06;67.12;101937.69;5092162;28;20208;-81
2022/03/07 02:13:30;;;;;;;8.03;7.23;;;;;;;1.06;67.00;101940.31;5097881;28;20272;-83
2022/03/07 02:15:57;;;;;;;7.87;7.00;;;;;;;1.06;67.02;101940.31;5086182;28;20220;-83
2022/03/07 02:18:23;;;;;;;9.00;7.13;;;;;;;1.08;66.66;101943.75;5096326;28;20211;-82
2022/03/07 02:20:58;;;;;;;8.07;7.07;;;;;;;1.07;66.85;101942.06;5094041;28;20216;-82
2022/03/07 02:23:26;;;;;;;8.50;7.57;;;;;;;1.07;66.99;101939.44;5097256;28;20212;-83
2022/03/07 02:25:53;;;;;;;9.07;7.70;;;;;;;1.07;66.96;101942.06;5094482;28;20743;-83
2022/03/07 02:28:19;;;;;;;8.53;7.70;;;;;;;1.06;67.29;101930.69;5096478;28;20200;-83
2022/03/07 02:30:46;;;;;;;8.50;7.37;;;;;;;1.05;67.49;101934.19;5088607;28;20200;-82
2022/03/07 02:33:13;;;;;;;8.40;7.50;;;;;;;1.05;67.28;101934.19;5088511;28;20216;-83
2022/03/07 02:35:40;;;;;;;9.37;7.20;;;;;;;1.04;67.58;101928.06;5089935;28;20231;-83
2022/03/07 02:38:13;;;;;;;7.97;7.17;;;;;;;1.06;67.41;101932.44;5091062;28;20196;-82
2022/03/07 02:40:41;;;;;;;9.57;8.00;;;;;;;1.06;67.84;101929.81;5094919;28;20201;-82
2022/03/07 02:43:08;;;;;;;10.20;7.43;;;;;;;1.06;67.30;101930.69;5085863;28;20314;-81
2022/03/07 02:45:34;;;;;;;11.00;7.60;;;;;;;1.06;68.03;101924.56;5090551;28;20205;-83
2022/03/07 02:48:01;;;;;;;10.27;7.77;;;;;;;1.05;67.43;101931.56;5092408;28;20210;-82
2022/03/07 02:50:28;;;;;;;10.53;7.77;;;;;;;1.04;67.60;101929.81;5092459;28;20212;-81
2022/03/07 02:52:56;;;;;;;10.23;7.73;;;;;;;1.05;67.65;101939.44;5088697;28;20219;-82
2022/03/07 02:55:22;;;;;;;10.77;8.00;;;;;;;1.04;67.87;101935.06;5093202;28;20214;-82
2022/03/07 02:57:50;;;;;;;8.97;8.07;;;;;;;1.04;67.84;101935.06;5092641;28;20228;-82
2022/03/07 03:00:17;;;;;;;9.30;8.30;;;;;;;1.06;67.84;101929.81;5091783;28;20210;-82
2022/03/07 03:02:44;;;;;;;10.00;8.23;;;;;;;1.04;68.03;101935.94;5091968;28;20204;-80
2022/03/07 03:05:10;;;;;;;9.10;8.17;;;;;;;1.03;68.25;101925.44;5093825;28;20204;-78
2022/03/07 03:07:37;;;;;;;10.57;8.50;;;;;;;1.02;68.43;101926.31;5082524;28;20254;-79
2022/03/07 03:10:04;;;;;;;10.47;9.10;;;;;;;1.01;68.47;101922.81;5086874;28;20204;-80
2022/03/07 03:12:30;;;;;;;9.93;8.40;;;;;;;1.01;68.27;101921.94;5078847;28;20208;-78
2022/03/07 03:14:59;;;;;;;10.20;9.20;;;;;;;1.00;68.74;101923.69;5091837;28;20196;-78
2022/03/07 03:17:26;;;;;;;10.63;8.90;;;;;;;1.01;68.51;101932.44;5091365;28;20278;-78
2022/03/07 03:19:53;;;;;;;13.43;10.07;;;;;;;0.99;68.60;101928.94;5093520;28;20705;-78
2022/03/07 03:22:20;;;;;;;10.77;8.67;;;;;;;0.98;68.79;101927.19;5090883;28;20204;-78
2022/03/07 03:24:46;;;;;;;10.30;9.13;;;;;;;0.98;68.64;101927.19;5092216;28;20235;-79
2022/03/07 03:27:13;;;;;;;10.30;9.07;;;;;;;0.98;68.99;101921.97;5085325;28;20236;-78
2022/03/07 03:29:40;;;;;;;11.37;9.10;;;;;;;0.98;68.83;101921.97;5084687;28;20200;-78
2022/03/07 03:32:08;;;;;;;10.73;9.03;;;;;;;0.96;69.04;101929.81;5086137;28;20216;-80
2022/03/07 03:34:35;;;;;;;12.67;9.63;;;;;;;0.96;68.94;101928.94;5091371;28;20669;-80
2022/03/07 03:37:01;;;;;;;9.70;8.67;;;;;;;0.95;68.87;101929.84;5080654;28;20232;-80
2022/03/07 03:39:28;;;;;;;12.53;9.20;;;;;;;0.95;68.82;101932.44;5080385;28;20545;-81
2022/03/07 03:41:54;;;;;;;13.57;9.37;;;;;;;0.94;69.37;101928.97;5092442;28;20212;-80
2022/03/07 03:44:21;;;;;;;10.43;9.20;;;;;;;0.95;69.15;101929.84;5093073;28;20224;-80
2022/03/07 03:46:47;;;;;;;10.90;8.20;;;;;;;0.94;69.52;101928.09;5085747;28;20757;-79
2022/03/07 03:49:15;;;;;;;11.50;9.10;;;;;;;0.92;69.20;101932.47;5081147;28;20197;-80
2022/03/07 03:51:42;;;;;;;10.00;8.87;;;;;;;0.93;69.32;101931.59;5087471;28;20218;-79
2022/03/07 03:54:08;;;;;;;9.87;8.87;;;;;;;0.92;68.95;101928.09;5091948;28;20200;-79
2022/03/07 03:56:35;;;;;;;9.90;8.47;;;;;;;0.92;69.63;101922.84;5087371;28;20886;-80
2022/03/07 03:59:01;;;;;;;10.73;8.60;;;;;;;0.93;69.68;101924.59;5091328;28;20208;-79
2022/03/07 04:01:28;;;;;;;10.93;8.63;;;;;;;0.91;69.25;101923.72;5096509;28;20713;-80
2022/03/07 04:03:54;;;;;;;11.07;8.87;;;;;;;0.92;69.52;101932.47;5093534;28;20224;-79
2022/03/07 04:06:22;;;;;;;10.90;9.13;;;;;;;0.90;69.55;101928.97;5102525;28;20220;-80
2022/03/07 04:09:18;;;;;;;12.57;8.63;;;;;;;0.90;69.24;101921.97;5097245;28;20201;-80
2022/03/07 04:11:44;;;;;;;11.70;9.33;;;;;;;0.88;69.13;101915.88;5095511;28;20291;-79
2022/03/07 04:14:11;;;;;;;11.17;8.47;;;;;;;0.86;69.07;101915.00;5103865;28;20204;-79
2022/03/07 04:16:38;;;;;;;10.00;8.43;;;;;;;0.84;69.24;101910.66;5094234;28;20224;-80
2022/03/07 04:19:06;;;;;;;9.47;8.03;;;;;;;0.82;69.33;101909.78;5108200;28;20568;-80
2022/03/07 04:21:34;;;;;;;9.87;8.40;;;;;;;0.77;69.19;101907.16;5089469;28;20578;-81
2022/03/07 04:24:00;;;;;;;10.83;8.03;;;;;;;0.75;69.09;101914.16;5078501;28;20315;-81
2022/03/07 04:26:27;;;;;;;11.83;8.33;;;;;;;0.73;69.02;101918.53;5088658;28;20709;-81
2022/03/07 04:28:54;;;;;;;11.80;8.47;;;;;;;0.69;69.38;101915.06;5084029;28;20231;-81
2022/03/07 04:31:21;;;;;;;11.37;8.07;;;;;;;0.65;68.98;101912.44;5088381;28;20257;-81
2022/03/07 04:33:48;;;;;;;10.53;8.27;;;;;;;0.62;69.07;101918.56;5085765;28;20205;-81
2022/03/07 04:36:15;;;;;;;9.60;7.57;;;;;;;0.59;69.00;101915.94;5087641;28;20220;-80
2022/03/07 04:38:42;;;;;;;11.67;8.23;;;;;;;0.56;69.07;101921.19;5091112;28;20204;-81
2022/03/07 04:41:09;;;;;;;11.00;7.93;;;;;;;0.52;69.22;101922.09;5083381;28;20201;-81
2022/03/07 04:43:36;;;;;;;9.30;8.30;;;;;;;0.49;69.07;101923.84;5083586;28;20224;-80
2022/03/07 04:46:04;;;;;;;9.73;7.93;;;;;;;0.45;69.11;101924.72;5082979;28;20232;-80
2022/03/07 04:48:31;;;;;;;13.93;9.10;;;;;;;0.40;69.20;101927.34;5078917;28;20571;-80
2022/03/07 04:50:57;;;;;;;13.87;9.93;;;;;;;0.37;69.34;101927.34;5081097;28;20201;-80
2022/03/07 04:53:24;;;;;;;12.07;10.23;;;;;;;0.33;69.33;101925.63;5092284;28;20210;-80
2022/03/07 04:55:52;;;;;;;11.27;8.93;;;;;;;0.31;69.25;101929.97;5090201;28;21893;-80
2022/03/07 04:58:18;;;;;;;11.07;8.70;;;;;;;0.28;69.33;101937.84;5096173;28;20710;-80
2022/03/07 05:00:45;;;;;;;10.37;8.60;;;;;;;0.25;69.34;101927.34;5092122;28;20677;-79
2022/03/07 05:03:11;;;;;;;15.90;8.23;;;;;;;0.23;69.25;101931.72;5094303;28;20197;-79
2022/03/07 05:05:38;;;;;;;9.77;8.77;;;;;;;0.19;69.32;101936.09;5093041;28;20223;-79
2022/03/07 05:08:05;;;;;;;10.47;8.13;;;;;;;0.16;69.34;101943.97;5086921;28;20692;-80
2022/03/07 05:10:32;;;;;;;11.30;8.40;;;;;;;0.12;69.13;101943.97;5084023;28;20200;-80
2022/03/07 05:13:00;;;;;;;10.37;8.40;;;;;;;0.10;69.33;101950.94;5089740;28;20216;-80
2022/03/07 05:15:26;;;;;;;11.00;8.07;;;;;;;0.07;69.29;101953.56;5093560;28;20211;-80
2022/03/07 05:17:54;;;;;;;11.40;8.40;;;;;;;0.06;69.50;101957.91;5091021;28;20566;-80
2022/03/07 05:20:21;;;;;;;8.73;7.63;;;;;;;0.02;69.51;101950.94;5085563;28;20204;-79
2022/03/07 05:22:49;;;;;;;11.47;8.23;;;;;;;-0.02;69.51;101954.44;5085302;28;20207;-81
2022/03/07 05:25:20;;;;;;;9.30;8.07;;;;;;;-0.05;69.53;101959.66;5084136;28;20223;-81
2022/03/07 05:27:47;;;;;;;9.00;7.20;;;;;;;-0.08;69.50;101962.28;5083872;28;20328;-81
2022/03/07 05:30:17;;;;;;;8.93;7.60;;;;;;;-0.12;69.41;101950.91;5084491;28;20204;-80
2022/03/07 05:32:43;;;;;;;10.33;7.57;;;;;;;-0.12;69.48;101963.13;5084138;28;20205;-80
2022/03/07 05:35:10;;;;;;;11.63;7.70;;;;;;;-0.15;69.70;101963.13;5086650;28;20199;-80
2022/03/07 05:37:37;;;;;;;11.27;8.13;;;;;;;-0.19;69.50;101972.75;5089082;28;20900;-80
2022/03/07 05:40:06;;;;;;;10.63;7.27;;;;;;;-0.24;69.66;101963.13;5085494;28;20213;-81
2022/03/07 05:42:33;;;;;;;11.63;8.67;;;;;;;-0.30;69.38;101969.22;5081640;28;20296;-81
2022/03/07 05:44:59;;;;;;;9.70;7.40;;;;;;;-0.36;69.55;101959.59;5085824;28;20223;-80
2022/03/07 05:47:27;;;;;;;11.63;8.00;;;;;;;-0.40;69.60;101963.09;5085451;28;20943;-81
2022/03/07 05:49:54;;;;;;;11.93;8.00;;;;;;;-0.44;69.69;101970.94;5082606;28;20231;-81
2022/03/07 05:52:21;;;;;;;12.33;8.60;;;;;;;-0.51;69.79;101970.03;5083315;28;20222;-81
2022/03/07 05:54:47;;;;;;;10.03;8.43;;;;;;;-0.57;69.59;101963.91;5086677;28;20231;-81
2022/03/07 05:57:14;;;;;;;10.00;7.30;;;;;;;-0.63;69.67;101969.13;5081993;28;20224;-80
2022/03/07 05:59:41;;;;;;;12.23;8.93;;;;;;;-0.68;69.94;101973.47;5085370;28;20213;-79
2022/03/07 06:02:07;;;;;;;10.50;8.37;;;;;;;-0.71;69.98;101977.81;5086741;28;20637;-80
2022/03/07 06:04:35;;;;;;;11.00;8.43;;;;;;;-0.75;70.39;101972.56;5085694;28;20220;-79
2022/03/07 06:07:02;;;;;;;9.10;7.80;;;;;;;-0.78;70.55;101975.19;5081227;28;20255;-80
2022/03/07 06:09:29;;;;;;;12.17;7.67;;;;;;;-0.82;70.43;101974.28;5082750;28;20213;-81
2022/03/07 06:11:55;;;;;;;9.93;7.53;;;;;;;-0.83;70.87;101976.88;5082272;28;20212;-80
2022/03/07 06:14:22;;;;;;;13.17;8.77;;;;;;;-0.85;71.01;101979.50;5078947;28;20760;-80
2022/03/07 06:16:49;;;;;;;10.77;7.60;;;;;;;-0.88;71.33;101979.47;5082080;28;20220;-80
2022/03/07 06:19:16;;;;;;;10.00;8.23;;;;;;;-0.89;71.21;101980.34;5078326;28;20225;-79
2022/03/07 06:21:43;;;;;;;11.50;8.37;;;;;;;-0.90;71.51;101981.25;5084516;28;20592;-79
2022/03/07 06:24:10;;;;;;;12.50;7.73;;;;;;;-0.92;71.46;101980.34;5082036;28;20216;-79
2022/03/07 06:26:36;;;;;;;8.90;7.10;;;;;;;-0.93;71.57;101991.69;5081414;28;20310;-79
2022/03/07 06:29:05;;;;;;;9.33;7.47;;;;;;;-0.95;71.60;101987.31;5079074;28;20211;-79
2022/03/07 06:31:32;;;;;;;10.50;7.43;;;;;;;-0.98;71.78;101995.13;5085929;28;20287;-80
2022/03/07 06:33:58;;;;;;;11.30;8.10;;;;;;;-1.00;72.22;101987.28;5089778;28;20209;-82
2022/03/07 06:36:25;;;;;;;11.70;7.97;;;;;;;-1.01;72.69;101982.91;5092251;28;20228;-82
2022/03/07 06:38:53;;;;;;;10.37;8.53;;;;;;;-1.02;72.51;101978.53;5084919;28;20283;-81
2022/03/07 06:41:19;;;;;;;15.03;8.90;;;;;;;-1.00;72.73;101968.97;5079529;28;20213;-81
2022/03/07 06:43:46;;;;;;;13.80;8.57;;;;;;;-0.98;72.89;101979.44;5085134;28;20205;-82
2022/03/07 06:46:12;;;;;;;11.87;8.80;;;;;;;-0.96;73.09;101972.47;5089594;28;20760;-81
2022/03/07 06:48:39;;;;;;;10.67;7.73;;;;;;;-0.94;73.46;101970.75;5083060;28;20295;-82
2022/03/07 06:51:06;;;;;;;13.10;8.10;;;;;;;-0.93;73.36;101972.50;5085338;28;20216;-82
2022/03/07 06:53:32;;;;;;;13.80;7.63;;;;;;;-0.90;73.12;101980.38;5089880;28;20713;-82
2022/03/07 06:56:00;;;;;;;10.13;7.93;;;;;;;-0.89;73.44;101979.47;5091044;28;20224;-83
2022/03/07 06:58:27;;;;;;;11.97;8.30;;;;;;;-0.88;73.57;101976.84;5090173;28;20287;-82
2022/03/07 07:00:53;;;;;;;17.20;9.27;;;;;;;-0.85;74.12;101979.50;5087555;28;21406;-82
2022/03/07 07:03:20;;;;;;;20.37;8.27;;;;;;;-0.83;73.85;101985.63;5085757;28;20209;-81
2022/03/07 07:05:47;;;;;;;14.10;9.50;;;;;;;-0.80;74.26;101992.59;5089262;28;20225;-81
2022/03/07 07:08:13;;;;;;;12.33;8.93;;;;;;;-0.78;74.12;101988.25;5086874;28;20208;-81
2022/03/07 07:10:41;;;;;;;13.07;8.30;;;;;;;-0.73;74.85;102002.25;5084326;28;20201;-82
2022/03/07 07:13:14;;;;;;;12.13;9.57;;;;;;;-0.71;74.52;102003.97;5089758;28;20235;-81
2022/03/07 07:15:40;;;;;;;13.07;9.57;;;;;;;-0.66;74.64;102004.00;5087016;28;20258;-82
2022/03/07 07:18:09;;;;;;;11.93;9.53;;;;;;;-0.62;75.11;102015.34;5091808;28;20238;-81
2022/03/07 07:20:36;;;;;;;12.47;8.83;;;;;;;-0.58;74.69;102014.50;5088159;28;20203;-81
2022/03/07 07:23:03;;;;;;;11.17;8.00;;;;;;;-0.53;74.54;102020.59;5089948;28;20204;-81
2022/03/07 07:25:29;;;;;;;9.93;8.23;;;;;;;-0.49;74.80;102019.75;5094494;28;20243;-81
2022/03/07 07:27:56;;;;;;;12.70;8.73;;;;;;;-0.44;74.32;102011.06;5097524;28;20227;-81
2022/03/07 07:30:24;;;;;;;11.47;8.93;;;;;;;-0.40;74.51;102031.16;5092045;28;20219;-81
2022/03/07 07:32:53;;;;;;;10.37;8.70;;;;;;;-0.35;74.42;102025.91;5090335;28;20287;-82
2022/03/07 07:35:19;;;;;;;12.00;9.90;;;;;;;-0.30;74.19;102020.69;5090515;28;20204;-82
2022/03/07 07:37:46;;;;;;;15.63;9.40;;;;;;;-0.25;74.24;102022.47;5086249;28;20223;-81
2022/03/07 07:40:12;;;;;;;11.93;9.63;;;;;;;-0.20;74.07;102035.59;5094108;28;20204;-80
2022/03/07 07:42:39;;;;;;;13.70;9.50;;;;;;;-0.14;73.90;102032.97;5082989;28;20239;-81
2022/03/07 07:45:06;;;;;;;10.80;8.43;;;;;;;-0.09;74.07;102034.72;5090949;28;20241;-82
2022/03/07 07:47:34;;;;;;;13.13;9.03;;;;;;;-0.03;73.93;102037.38;5091026;28;20697;-83
2022/03/07 07:50:01;;;;;;;11.40;9.40;;;;;;;0.05;73.91;102039.13;5093705;28;20207;-83
2022/03/07 07:52:27;;;;;;;13.27;9.37;;;;;;;0.12;73.90;102040.88;5087856;28;20219;-83
2022/03/07 07:54:56;;;;;;;12.67;10.07;;;;;;;0.19;74.04;102035.63;5091017;28;20291;-83
2022/03/07 07:57:22;;;;;;;15.30;10.37;;;;;;;0.29;73.97;102042.66;5092409;28;20670;-81
2022/03/07 07:59:49;;;;;;;17.93;12.30;;;;;;;0.37;74.07;102041.75;5088596;28;20204;-82
2022/03/07 08:02:15;;;;;;;15.93;11.73;;;;;;;0.47;74.21;102038.28;5091437;28;20212;-80
2022/03/07 08:04:43;;;;;;;15.23;10.37;;;;;;;0.60;74.06;102040.03;5088228;28;20221;-82
2022/03/07 08:07:15;;;;;;;12.43;10.20;;;;;;;0.72;73.85;102042.63;5097481;28;20220;-85
2022/03/07 08:09:41;;;;;;;11.97;10.00;;;;;;;0.85;73.94;102046.16;5087868;28;20197;-83
2022/03/07 08:12:08;;;;;;;14.00;11.10;;;;;;;0.96;73.79;102045.25;5091307;28;20219;-83
2022/03/07 08:14:35;;;;;;;12.00;9.93;;;;;;;1.10;73.49;102039.97;5092132;28;20200;-85
2022/03/07 08:17:02;;;;;;;13.30;10.50;;;;;;;1.22;73.00;102039.97;5093919;28;20318;-84
2022/03/07 08:19:28;;;;;;;12.93;10.70;;;;;;;1.34;73.08;102034.66;5090892;28;20207;-84
2022/03/07 08:21:56;;;;;;;13.90;10.97;;;;;;;1.47;72.99;102037.22;5098389;28;20196;-84
2022/03/07 08:24:23;;;;;;;13.00;11.03;;;;;;;1.57;72.87;102033.69;5096144;28;20294;-84
2022/03/07 08:26:49;;;;;;;15.77;11.07;;;;;;;1.67;72.91;102027.50;5094126;28;20240;-85
2022/03/07 08:29:16;;;;;;;13.47;11.07;;;;;;;1.79;72.62;102034.47;5090151;28;20200;-84
2022/03/07 08:31:42;;;;;;;17.73;11.17;;;;;;;1.91;72.23;102042.28;5096665;28;20277;-83
2022/03/07 08:34:09;;;;;;;14.87;11.27;;;;;;;2.01;71.74;102033.44;5098426;28;20287;-83
2022/03/07 08:36:36;;;;;;;13.67;10.33;;;;;;;2.12;71.34;102038.66;5095261;28;20729;-83
2022/03/07 08:39:04;;;;;;;13.13;10.63;;;;;;;2.24;71.67;102044.69;5097734;28;20216;-83
2022/03/07 08:41:31;;;;;;;14.53;10.43;;;;;;;2.36;70.83;102043.72;5093900;28;20192;-82
2022/03/07 08:44:00;;;;;;;16.00;10.83;;;;;;;2.48;70.72;102041.03;5093831;28;20207;-82
2022/03/07 08:46:30;;;;;;;13.03;11.20;;;;;;;2.59;70.47;102047.06;5094174;28;20228;-84
2022/03/07 08:48:56;;;;;;;13.13;10.77;;;;;;;2.74;71.06;102046.06;5092400;28;20272;-83
2022/03/07 08:51:23;;;;;;;12.63;10.03;;;;;;;2.85;69.81;102032.81;5093295;28;20705;-83
2022/03/07 08:53:49;;;;;;;13.33;10.13;;;;;;;2.97;70.21;102033.56;5095956;28;20200;-82
2022/03/07 08:56:18;;;;;;;12.10;10.50;;;;;;;3.11;69.79;102041.31;5098115;28;20224;-82
2022/03/07 08:58:44;;;;;;;10.87;9.37;;;;;;;3.22;68.74;102036.81;5096714;28;20216;-82
2022/03/07 09:01:11;;;;;;;13.23;10.23;;;;;;;3.33;69.22;102042.81;5090963;28;20196;-82
2022/03/07 09:03:37;;;;;;;14.17;10.30;;;;;;;3.44;68.28;102048.84;5099079;28;20217;-86
2022/03/07 09:06:04;;;;;;;11.10;9.87;;;;;;;3.54;67.76;102038.19;5098883;28;20232;-84
2022/03/07 09:08:32;;;;;;;13.50;11.23;;;;;;;3.62;68.06;102041.59;5098568;28;20212;-83
2022/03/07 09:10:59;;;;;;;11.70;9.83;;;;;;;3.73;67.26;102045.84;5099794;28;20594;-83
2022/03/07 09:13:27;;;;;;;11.80;10.17;;;;;;;3.85;67.65;102044.81;5098302;28;20208;-83
2022/03/07 09:15:55;;;;;;;14.07;9.97;;;;;;;3.93;66.69;102042.97;5093884;28;20896;-82
2022/03/07 09:18:22;;;;;;;11.47;9.57;;;;;;;4.04;66.82;102038.41;5098002;28;20218;-82
2022/03/07 09:20:48;;;;;;;13.47;10.53;;;;;;;4.14;65.89;102040.00;5093070;28;20189;-84
2022/03/07 09:23:15;;;;;;;11.97;10.10;;;;;;;4.26;65.77;102043.38;5100266;28;20208;-83
2022/03/07 09:25:42;;;;;;;11.60;10.40;;;;;;;4.32;65.21;102045.88;5097870;28;20234;-82
2022/03/07 09:28:08;;;;;;;14.27;9.90;;;;;;;4.40;65.03;102047.53;5095857;28;20214;-82
2022/03/07 09:30:36;;;;;;;11.83;9.10;;;;;;;4.48;65.25;102044.75;5092470;28;20204;-83
2022/03/07 09:33:03;;;;;;;11.63;9.47;;;;;;;4.54;64.66;102028.81;5091984;28;20209;-82
2022/03/07 09:35:32;;;;;;;12.93;10.17;;;;;;;4.63;64.83;102030.47;5090340;28;20234;-83
2022/03/07 09:37:59;;;;;;;11.80;10.33;;;;;;;4.76;64.41;102034.63;5093874;28;20230;-84
2022/03/07 09:40:26;;;;;;;12.53;10.00;;;;;;;4.84;64.28;102038.84;5088332;28;20212;-83
2022/03/07 09:42:52;;;;;;;12.67;10.57;;;;;;;4.92;63.90;102028.16;5094479;28;20556;-83
2022/03/07 09:45:19;;;;;;;13.47;10.70;;;;;;;5.02;63.67;102039.41;5099338;28;20598;-84
2022/03/07 09:47:48;;;;;;;13.13;10.53;;;;;;;5.09;63.35;102038.41;5093513;28;20217;-83
2022/03/07 09:50:15;;;;;;;11.47;9.43;;;;;;;5.17;63.60;102037.41;5088379;28;20655;-84
2022/03/07 09:52:44;;;;;;;9.63;8.70;;;;;;;5.26;62.91;102038.97;5095907;28;20212;-84
2022/03/07 09:55:14;;;;;;;13.70;10.53;;;;;;;5.36;62.58;102035.28;5090126;28;20207;-82
2022/03/07 09:57:40;;;;;;;13.73;9.67;;;;;;;5.42;62.22;102035.13;5084414;28;20244;-83
2022/03/07 10:00:11;;;;;;;11.10;9.67;;;;;;;5.49;61.95;102036.75;5087576;28;20208;-83
2022/03/07 10:02:40;;;;;;;12.27;9.77;;;;;;;5.53;61.63;102038.44;5085903;28;20677;-84
2022/03/07 10:05:08;;;;;;;13.73;10.30;;;;;;;5.58;61.45;102040.97;5089519;28;20207;-84
2022/03/07 10:07:53;;;;;;;12.00;9.07;;;;;;;5.67;61.62;102034.63;5089832;28;20234;-83
2022/03/07 10:10:20;;;;;;;19.10;9.50;;;;;;;5.73;61.45;102032.72;5086051;28;20223;-84
2022/03/07 10:12:48;;;;;;;11.67;9.47;;;;;;;5.80;61.02;102030.81;5099381;28;20568;-83
2022/03/07 10:15:17;;;;;;;11.30;9.87;;;;;;;5.86;60.91;102030.69;5098251;28;20210;-84
2022/03/07 10:17:49;;;;;;;10.20;9.20;;;;;;;5.94;60.80;102020.84;5097408;28;20223;-83
2022/03/07 10:20:19;;;;;;;13.63;8.63;;;;;;;6.03;60.69;102031.22;5098967;28;20205;-83
2022/03/07 10:22:47;;;;;;;12.03;8.57;;;;;;;6.09;60.20;102025.78;5098292;28;20208;-83
2022/03/07 10:25:14;;;;;;;8.47;7.47;;;;;;;6.16;59.81;102016.81;5094729;28;20212;-83
2022/03/07 10:27:44;;;;;;;10.57;8.70;;;;;;;6.21;59.42;102012.28;5086676;28;20225;-84
2022/03/07 10:30:12;;;;;;;10.50;8.53;;;;;;;6.25;59.12;102021.03;5093624;28;20287;-84
2022/03/07 10:32:38;;;;;;;10.20;8.17;;;;;;;6.30;58.61;102023.53;5088960;28;20208;-83
2022/03/07 10:35:06;;;;;;;12.17;8.40;;;;;;;6.35;58.32;102019.00;5090421;28;20215;-84
2022/03/07 10:37:36;;;;;;;10.77;8.33;;;;;;;6.43;58.05;102020.59;5090165;28;20220;-83
2022/03/07 10:40:04;;;;;;;11.73;7.87;;;;;;;6.47;57.39;102019.56;5087284;28;20295;-84
2022/03/07 10:42:31;;;;;;;9.37;8.40;;;;;;;6.50;57.40;102022.16;5091538;28;20209;-84
2022/03/07 10:45:06;;;;;;;13.53;8.90;;;;;;;6.58;57.19;102016.69;5086359;28;20201;-82
2022/03/07 10:47:33;;;;;;;9.93;7.33;;;;;;;6.59;56.52;102011.34;5085055;28;20232;-84
2022/03/07 10:50:00;;;;;;;9.33;4.87;;;;;;;6.63;56.11;102014.78;5094651;28;20590;-83
2022/03/07 10:52:38;;;;;;;5.97;4.73;;;;;;;6.61;54.68;102020.13;5087477;28;20814;-85
2022/03/07 10:55:05;;;;;;;4.43;3.93;;;;;;;6.56;54.00;102021.13;5090169;28;20693;-82
2022/03/07 10:57:37;;;;;;;6.63;4.17;;;;;;;6.59;52.85;102026.38;5092298;28;20250;-83
2022/03/07 11:00:06;;;;;;;5.87;3.13;;;;;;;6.62;52.77;102023.66;5096677;28;20200;-84
2022/03/07 11:02:38;;;;;;;9.63;5.50;;;;;;;6.65;52.21;102026.19;5084832;28;20219;-84
2022/03/07 11:05:07;;;;;;;7.33;5.47;;;;;;;6.71;52.51;102028.69;5087763;28;20288;-84
2022/03/07 11:07:37;;;;;;;7.50;6.43;;;;;;;6.82;52.78;102031.06;5090822;28;20232;-82
2022/03/07 11:10:05;;;;;;;9.23;5.83;;;;;;;6.93;52.05;102021.94;5088074;28;20679;-82
2022/03/07 11:12:32;;;;;;;5.73;4.40;;;;;;;7.02;50.68;102025.25;5088015;28;20283;-84
2022/03/07 11:15:00;;;;;;;6.43;3.90;;;;;;;7.01;49.96;102013.78;5094858;28;20243;-84
2022/03/07 11:17:31;;;;;;;7.27;4.27;;;;;;;7.03;50.75;102021.69;5085209;28;20636;-83
2022/03/07 11:19:58;;;;;;;5.77;4.43;;;;;;;7.07;50.20;102012.75;5090554;28;20192;-83
2022/03/07 11:22:25;;;;;;;6.17;4.70;;;;;;;7.07;49.46;101996.84;5097442;28;20227;-83
2022/03/07 11:24:54;;;;;;;7.53;5.67;;;;;;;7.11;49.84;102003.81;5083498;28;20811;-83